הכול
Cowra Airport (Cowra, New South Wales) CWT מזג אוויר
|
Cowra, New South Wales (CWT / YCWR)
שמים בהירים
רוחות |
|
13 °C |
There is no TAF data available at CWT or any nearby airports.
Recent CWT METAR history
| Date | Time (AEST) | Flight Rules | Wind Dir. | Speed | Type | Height AGL (ft) | Visibility | Temp (°C) | Temp (°F) | Dew Point (°C) | Dew Point (°F) | Rel. Humid. | Pressure | Density Altitude | Remarks |
|---|---|---|---|---|---|---|---|---|---|---|---|---|---|---|---|
| 06-ספט | 11:00 | n/a | 260° | 11 kt | Missing | 13° | 55° | 9° | 48° | 77% | 1021 mb | 496 ft | |||
| 06-ספט | 10:00 | n/a | 250° | 8 kt | Missing | 12° | 53° | 9° | 48° | 82% | 1021 mb | 376 ft | |||
| 06-ספט | 09:00 | n/a | 230° | 10 kt | Missing | 12° | 53° | 9° | 48° | 82% | 1020 mb | 405 ft | |||
| 06-ספט | 08:00 | n/a | 250° | 8 kt | Missing | 11° | 51° | 8° | 46° | 82% | 1020 mb | 285 ft | |||
| 06-ספט | 07:00 | n/a | 260° | 6 kt | Missing | 10° | 50° | 7° | 44° | 82% | 1019 mb | 195 ft | |||
| 06-ספט | 06:00 | n/a | 260° | 6 kt | Missing | 10° | 50° | 7° | 44° | 82% | 1019 mb | 195 ft | |||
| 06-ספט | 05:00 | n/a | 260° | 11 kt | Missing | 10° | 50° | 7° | 44° | 82% | 1018 mb | 224 ft | |||
| 06-ספט | 04:00 | n/a | 260° | 11 kt | Missing | 11° | 51° | 7° | 44° | 76% | 1017 mb | 374 ft | |||
| 06-ספט | 03:00 | n/a | 250° | 10 kt | Missing | 11° | 51° | 7° | 44° | 76% | 1017 mb | 374 ft | |||
| 06-ספט | 02:00 | n/a | 250° | 9 kt | Missing | 10° | 50° | 6° | 42° | 76% | 1017 mb | 254 ft | |||
| 06-ספט | 01:00 | n/a | 260° | 10 kt | Missing | 11° | 51° | 7° | 44° | 76% | 1016 mb | 404 ft | |||
| 06-ספט | 00:00 | n/a | 250° | 11 kt | Missing | 13° | 55° | 7° | 44° | 67% | 1016 mb | 644 ft | Wind gusting to 21 KT | ||
| 05-ספט | 23:00 | n/a | 270° | 9 kt | Missing | 14° | 57° | 8° | 46° | 67% | 1015 mb | 793 ft | |||
| 05-ספט | 22:00 | n/a | 240° | 7 kt | Missing | 15° | 59° | 11° | 51° | 77% | 1014 mb | 943 ft | |||
| 05-ספט | 21:00 | n/a | 240° | 8 kt | Missing | 16° | 60° | 12° | 53° | 77% | 1013 mb | 1,092 ft | |||
| 05-ספט | 20:00 | n/a | 200° | 5 kt | Missing | 15° | 59° | 13° | 55° | 88% | 1012 mb | 1,002 ft | |||
| 05-ספט | 19:00 | n/a | Calm | Missing | 14° | 57° | 12° | 53° | 88% | 1011 mb | 911 ft | ||||
| 05-ספט | 18:00 | n/a | 210° | 5 kt | Missing | 15° | 59° | 13° | 55° | 88% | 1010 mb | 1,061 ft | |||
| 05-ספט | 17:00 | n/a | 340° | 5 kt | Missing | 17° | 62° | 13° | 55° | 77% | 1010 mb | 1,301 ft | |||
| 05-ספט | 16:00 | n/a | 10° | 8 kt | Missing | 18° | 64° | 13° | 55° | 73% | 1010 mb | 1,421 ft | |||
| 05-ספט | 15:00 | n/a | 190° | 5 kt | Missing | 17° | 62° | 13° | 55° | 77% | 1012 mb | 1,242 ft | |||
| 05-ספט | 14:00 | n/a | 230° | 22 kt | Missing | 18° | 64° | 12° | 53° | 68% | 1013 mb | 1,332 ft | |||
| 05-ספט | 13:00 | n/a | 290° | 14 kt | Missing | 21° | 69° | 13° | 55° | 60% | 1012 mb | 1,722 ft | |||
| 05-ספט | 12:00 | n/a | 290° | 17 kt | Missing | 20° | 68° | 11° | 51° | 56% | 1013 mb | 1,572 ft |
כניסה לאתר
| אין תמיכה בדפדפן שלך. שדרג את הדפדפן שלך |
